Terminal Aerodrome Forecast
Issued by NWS

Current Version | Previous Version | Text Only | Print | Product List | Glossary On
Versions: 1 2 3 4 5 6 7 8 9 10 11 12 13 14 15 16 17
000
FTUS42 KGSP 240544 RRA
TAFAND
TAF
KAND 240544Z 2406/2506 05003KT P6SM SCT240
     FM241600 12003KT P6SM SCT160=

USA.gov is the U.S. government's official web portal to all federal, state and local government web resources and services.